sensor_id;sensor_type;location;lat;lon;timestamp;pressure;altitude;pressure_sealevel;temperature;humidity
9077;BME280;4574;51.072;17.174;2023-12-07T00:01:15;100279.22;;;1.24;100.00
9077;BME280;4574;51.072;17.174;2023-12-07T00:03:42;100287.81;;;2.26;100.00
9077;BME280;4574;51.072;17.174;2023-12-07T00:06:11;100287.44;;;2.04;100.00
9077;BME280;4574;51.072;17.174;2023-12-07T00:08:40;100292.25;;;1.82;100.00
9077;BME280;4574;51.072;17.174;2023-12-07T00:11:08;100291.44;;;1.66;100.00
9077;BME280;4574;51.072;17.174;2023-12-07T00:13:38;100286.94;;;1.54;100.00
9077;BME280;4574;51.072;17.174;2023-12-07T00:16:07;100280.69;;;1.43;100.00
9077;BME280;4574;51.072;17.174;2023-12-07T00:18:35;100293.22;;;1.36;100.00
9077;BME280;4574;51.072;17.174;2023-12-07T00:21:04;100283.31;;;1.27;100.00
9077;BME280;4574;51.072;17.174;2023-12-07T00:23:33;100288.72;;;1.25;100.00
9077;BME280;4574;51.072;17.174;2023-12-07T00:26:03;100286.56;;;1.17;100.00
9077;BME280;4574;51.072;17.174;2023-12-07T00:28:32;100291.59;;;1.20;100.00
9077;BME280;4574;51.072;17.174;2023-12-07T00:31:02;100290.84;;;1.18;100.00
9077;BME280;4574;51.072;17.174;2023-12-07T00:33:31;100296.13;;;1.17;100.00
9077;BME280;4574;51.072;17.174;2023-12-07T00:36:00;100299.59;;;1.17;100.00
9077;BME280;4574;51.072;17.174;2023-12-07T00:38:30;100299.31;;;1.22;100.00
9077;BME280;4574;51.072;17.174;2023-12-07T00:40:59;100300.81;;;1.26;100.00
9077;BME280;4574;51.072;17.174;2023-12-07T00:43:28;100298.03;;;1.28;100.00
9077;BME280;4574;51.072;17.174;2023-12-07T00:45:57;100297.09;;;1.29;100.00
9077;BME280;4574;51.072;17.174;2023-12-07T00:48:27;100297.09;;;1.29;100.00
9077;BME280;4574;51.072;17.174;2023-12-07T00:50:56;100296.13;;;1.32;100.00
9077;BME280;4574;51.072;17.174;2023-12-07T00:53:24;100297.88;;;1.31;100.00
9077;BME280;4574;51.072;17.174;2023-12-07T00:55:53;100301.56;;;1.27;100.00
9077;BME280;4574;51.072;17.174;2023-12-07T00:58:21;100307.38;;;1.32;100.00
9077;BME280;4574;51.072;17.174;2023-12-07T01:00:51;100286.22;;;1.23;100.00
9077;BME280;4574;51.072;17.174;2023-12-07T01:03:19;100301.16;;;1.35;100.00
9077;BME280;4574;51.072;17.174;2023-12-07T01:05:50;100303.06;;;1.31;100.00
9077;BME280;4574;51.072;17.174;2023-12-07T01:08:18;100311.94;;;1.29;100.00
9077;BME280;4574;51.072;17.174;2023-12-07T01:10:47;100312.00;;;1.27;100.00
9077;BME280;4574;51.072;17.174;2023-12-07T01:13:15;100308.75;;;1.24;100.00
9077;BME280;4574;51.072;17.174;2023-12-07T01:15:44;100319.16;;;1.24;100.00
9077;BME280;4574;51.072;17.174;2023-12-07T01:18:13;100315.53;;;1.27;100.00
9077;BME280;4574;51.072;17.174;2023-12-07T01:20:42;100316.56;;;1.24;100.00
9077;BME280;4574;51.072;17.174;2023-12-07T01:23:12;100311.59;;;1.20;100.00
9077;BME280;4574;51.072;17.174;2023-12-07T01:25:42;100316.63;;;1.23;100.00
9077;BME280;4574;51.072;17.174;2023-12-07T01:28:11;100324.47;;;1.23;100.00
9077;BME280;4574;51.072;17.174;2023-12-07T01:30:40;100325.38;;;1.22;100.00
9077;BME280;4574;51.072;17.174;2023-12-07T01:33:08;100328.91;;;1.21;100.00
9077;BME280;4574;51.072;17.174;2023-12-07T01:35:37;100330.75;;;1.19;100.00
9077;BME280;4574;51.072;17.174;2023-12-07T01:38:06;100332.72;;;1.15;100.00
9077;BME280;4574;51.072;17.174;2023-12-07T01:40:36;100320.19;;;1.06;100.00
9077;BME280;4574;51.072;17.174;2023-12-07T01:43:05;100330.53;;;1.08;100.00
9077;BME280;4574;51.072;17.174;2023-12-07T01:45:33;100342.56;;;1.10;100.00
9077;BME280;4574;51.072;17.174;2023-12-07T01:48:02;100335.66;;;1.09;100.00
9077;BME280;4574;51.072;17.174;2023-12-07T01:50:32;100329.59;;;1.09;100.00
9077;BME280;4574;51.072;17.174;2023-12-07T01:53:02;100335.84;;;1.06;100.00
9077;BME280;4574;51.072;17.174;2023-12-07T01:55:36;100331.44;;;1.07;100.00
9077;BME280;4574;51.072;17.174;2023-12-07T01:58:05;100333.88;;;1.10;100.00
9077;BME280;4574;51.072;17.174;2023-12-07T02:00:35;100331.28;;;1.10;100.00
9077;BME280;4574;51.072;17.174;2023-12-07T02:03:04;100334.47;;;1.15;100.00
9077;BME280;4574;51.072;17.174;2023-12-07T02:05:33;100337.75;;;1.18;100.00
9077;BME280;4574;51.072;17.174;2023-12-07T02:08:03;100338.41;;;1.22;100.00
9077;BME280;4574;51.072;17.174;2023-12-07T02:10:32;100339.16;;;1.24;100.00
9077;BME280;4574;51.072;17.174;2023-12-07T02:13:03;100345.88;;;1.27;100.00
9077;BME280;4574;51.072;17.174;2023-12-07T02:15:32;100334.72;;;1.26;100.00
9077;BME280;4574;51.072;17.174;2023-12-07T02:18:03;100341.53;;;1.28;100.00
9077;BME280;4574;51.072;17.174;2023-12-07T02:20:39;100344.91;;;1.30;100.00
9077;BME280;4574;51.072;17.174;2023-12-07T02:23:11;100354.28;;;1.32;100.00
9077;BME280;4574;51.072;17.174;2023-12-07T02:25:52;100360.19;;;1.36;100.00
9077;BME280;4574;51.072;17.174;2023-12-07T02:28:23;100355.06;;;1.34;100.00
9077;BME280;4574;51.072;17.174;2023-12-07T02:30:52;100352.44;;;1.34;100.00
9077;BME280;4574;51.072;17.174;2023-12-07T02:33:21;100360.94;;;1.38;100.00
9077;BME280;4574;51.072;17.174;2023-12-07T02:35:50;100338.06;;;1.27;100.00
9077;BME280;4574;51.072;17.174;2023-12-07T02:38:21;100347.00;;;1.39;100.00
9077;BME280;4574;51.072;17.174;2023-12-07T02:40:51;100353.03;;;1.39;100.00
9077;BME280;4574;51.072;17.174;2023-12-07T02:43:23;100359.00;;;1.41;100.00
9077;BME280;4574;51.072;17.174;2023-12-07T02:45:52;100360.69;;;1.42;100.00
9077;BME280;4574;51.072;17.174;2023-12-07T02:48:21;100358.06;;;1.42;100.00
9077;BME280;4574;51.072;17.174;2023-12-07T02:50:51;100353.94;;;1.38;100.00
9077;BME280;4574;51.072;17.174;2023-12-07T02:53:19;100347.41;;;1.31;100.00
9077;BME280;4574;51.072;17.174;2023-12-07T02:55:48;100360.69;;;1.42;100.00
9077;BME280;4574;51.072;17.174;2023-12-07T02:58:17;100364.22;;;1.41;100.00
9077;BME280;4574;51.072;17.174;2023-12-07T03:00:47;100360.03;;;1.39;100.00
9077;BME280;4574;51.072;17.174;2023-12-07T03:03:15;100376.31;;;1.42;100.00
9077;BME280;4574;51.072;17.174;2023-12-07T03:05:44;100374.66;;;1.41;100.00
9077;BME280;4574;51.072;17.174;2023-12-07T03:08:13;100354.28;;;1.32;100.00
9077;BME280;4574;51.072;17.174;2023-12-07T03:10:41;100371.09;;;1.42;100.00
9077;BME280;4574;51.072;17.174;2023-12-07T03:13:10;100377.19;;;1.43;100.00
9077;BME280;4574;51.072;17.174;2023-12-07T03:15:39;100378.00;;;1.43;100.00
9077;BME280;4574;51.072;17.174;2023-12-07T03:18:09;100368.44;;;1.44;100.00
9077;BME280;4574;51.072;17.174;2023-12-07T03:20:37;100375.41;;;1.43;100.00
9077;BME280;4574;51.072;17.174;2023-12-07T03:23:06;100373.72;;;1.42;100.00
9077;BME280;4574;51.072;17.174;2023-12-07T03:25:34;100384.06;;;1.44;100.00
9077;BME280;4574;51.072;17.174;2023-12-07T03:28:03;100378.00;;;1.43;100.00
9077;BME280;4574;51.072;17.174;2023-12-07T03:30:32;100384.91;;;1.44;100.00
9077;BME280;4574;51.072;17.174;2023-12-07T03:33:00;100391.03;;;1.43;100.00
9077;BME280;4574;51.072;17.174;2023-12-07T03:35:31;100393.66;;;1.43;100.00
9077;BME280;4574;51.072;17.174;2023-12-07T03:37:59;100392.81;;;1.43;100.00
9077;BME280;4574;51.072;17.174;2023-12-07T03:40:28;100393.66;;;1.43;100.00
9077;BME280;4574;51.072;17.174;2023-12-07T03:42:57;100397.19;;;1.42;100.00
9077;BME280;4574;51.072;17.174;2023-12-07T03:45:24;100408.38;;;1.44;100.00
9077;BME280;4574;51.072;17.174;2023-12-07T03:47:53;100406.63;;;1.45;100.00
9077;BME280;4574;51.072;17.174;2023-12-07T03:50:21;100413.69;;;1.43;100.00
9077;BME280;4574;51.072;17.174;2023-12-07T03:52:52;100405.94;;;1.41;100.00
9077;BME280;4574;51.072;17.174;2023-12-07T03:55:20;100405.28;;;1.38;100.00
9077;BME280;4574;51.072;17.174;2023-12-07T03:57:49;100407.03;;;1.37;100.00
9077;BME280;4574;51.072;17.174;2023-12-07T04:00:17;100418.91;;;1.43;100.00
9077;BME280;4574;51.072;17.174;2023-12-07T04:02:46;100421.41;;;1.44;100.00
9077;BME280;4574;51.072;17.174;2023-12-07T04:05:14;100420.59;;;1.44;100.00
9077;BME280;4574;51.072;17.174;2023-12-07T04:07:43;100423.94;;;1.46;100.00
9077;BME280;4574;51.072;17.174;2023-12-07T04:10:13;100420.59;;;1.44;100.00
9077;BME280;4574;51.072;17.174;2023-12-07T04:12:43;100424.78;;;1.46;100.00
9077;BME280;4574;51.072;17.174;2023-12-07T04:15:12;100418.03;;;1.42;100.00
9077;BME280;4574;51.072;17.174;2023-12-07T04:17:44;100430.91;;;1.45;100.00
9077;BME280;4574;51.072;17.174;2023-12-07T04:20:13;100429.06;;;1.47;100.00
9077;BME280;4574;51.072;17.174;2023-12-07T04:22:42;100434.28;;;1.47;100.00
9077;BME280;4574;51.072;17.174;2023-12-07T04:25:14;100439.59;;;1.46;100.00
9077;BME280;4574;51.072;17.174;2023-12-07T04:27:42;100435.97;;;1.48;100.00
9077;BME280;4574;51.072;17.174;2023-12-07T04:30:12;100430.75;;;1.48;100.00
9077;BME280;4574;51.072;17.174;2023-12-07T04:32:40;100424.72;;;1.48;100.00
9077;BME280;4574;51.072;17.174;2023-12-07T04:35:09;100424.78;;;1.46;100.00
9077;BME280;4574;51.072;17.174;2023-12-07T04:37:38;100436.06;;;1.47;100.00
9077;BME280;4574;51.072;17.174;2023-12-07T04:40:07;100435.22;;;1.46;100.00
9077;BME280;4574;51.072;17.174;2023-12-07T04:42:39;100429.34;;;1.43;100.00
9077;BME280;4574;51.072;17.174;2023-12-07T04:45:08;100435.31;;;1.45;100.00
9077;BME280;4574;51.072;17.174;2023-12-07T04:47:37;100433.63;;;1.44;100.00
9077;BME280;4574;51.072;17.174;2023-12-07T04:50:06;100431.03;;;1.44;100.00
9077;BME280;4574;51.072;17.174;2023-12-07T04:52:33;100444.13;;;1.42;100.00
9077;BME280;4574;51.072;17.174;2023-12-07T04:55:03;100431.19;;;1.41;100.00
9077;BME280;4574;51.072;17.174;2023-12-07T04:57:33;100432.69;;;1.45;100.00
9077;BME280;4574;51.072;17.174;2023-12-07T05:00:04;100441.34;;;1.45;100.00
9077;BME280;4574;51.072;17.174;2023-12-07T05:02:37;100438.16;;;1.40;100.00
9077;BME280;4574;51.072;17.174;2023-12-07T05:05:06;100447.50;;;1.44;100.00
9077;BME280;4574;51.072;17.174;2023-12-07T05:07:36;100448.34;;;1.45;100.00
9077;BME280;4574;51.072;17.174;2023-12-07T05:10:05;100444.28;;;1.39;100.00
9077;BME280;4574;51.072;17.174;2023-12-07T05:12:34;100445.97;;;1.40;100.00
9077;BME280;4574;51.072;17.174;2023-12-07T05:15:05;100447.81;;;1.38;100.00
9077;BME280;4574;51.072;17.174;2023-12-07T05:17:34;100465.75;;;1.44;100.00
9077;BME280;4574;51.072;17.174;2023-12-07T05:20:03;100470.91;;;1.46;100.00
9077;BME280;4574;51.072;17.174;2023-12-07T05:22:33;100470.03;;;1.45;100.00
9077;BME280;4574;51.072;17.174;2023-12-07T05:25:01;100465.84;;;1.43;100.00
9077;BME280;4574;51.072;17.174;2023-12-07T05:27:31;100471.81;;;1.45;100.00
9077;BME280;4574;51.072;17.174;2023-12-07T05:29:59;100469.22;;;1.45;100.00
9077;BME280;4574;51.072;17.174;2023-12-07T05:32:29;100486.53;;;1.46;100.00
9077;BME280;4574;51.072;17.174;2023-12-07T05:34:58;100482.16;;;1.46;100.00
9077;BME280;4574;51.072;17.174;2023-12-07T05:37:27;100482.16;;;1.46;100.00
9077;BME280;4574;51.072;17.174;2023-12-07T05:39:55;100478.63;;;1.47;100.00
9077;BME280;4574;51.072;17.174;2023-12-07T05:42:24;100479.47;;;1.48;100.00
9077;BME280;4574;51.072;17.174;2023-12-07T05:44:53;100480.47;;;1.45;100.00
9077;BME280;4574;51.072;17.174;2023-12-07T05:47:21;100490.72;;;1.48;100.00
9077;BME280;4574;51.072;17.174;2023-12-07T05:49:52;100489.91;;;1.48;100.00
9077;BME280;4574;51.072;17.174;2023-12-07T05:52:20;100489.06;;;1.47;100.00
9077;BME280;4574;51.072;17.174;2023-12-07T05:54:49;100489.91;;;1.48;100.00
9077;BME280;4574;51.072;17.174;2023-12-07T05:57:18;100501.16;;;1.48;100.00
9077;BME280;4574;51.072;17.174;2023-12-07T05:59:47;100493.50;;;1.45;100.00
9077;BME280;4574;51.072;17.174;2023-12-07T06:02:16;100482.47;;;1.40;100.00
9077;BME280;4574;51.072;17.174;2023-12-07T06:04:44;100498.66;;;1.47;100.00
9077;BME280;4574;51.072;17.174;2023-12-07T06:07:14;100500.34;;;1.48;100.00
9077;BME280;4574;51.072;17.174;2023-12-07T06:09:43;100496.97;;;1.46;100.00
9077;BME280;4574;51.072;17.174;2023-12-07T06:12:11;100503.00;;;1.46;100.00
9077;BME280;4574;51.072;17.174;2023-12-07T06:14:40;100498.13;;;1.40;100.00
9077;BME280;4574;51.072;17.174;2023-12-07T06:17:09;100510.94;;;1.45;100.00
9077;BME280;4574;51.072;17.174;2023-12-07T06:19:38;100514.53;;;1.42;100.00
9077;BME280;4574;51.072;17.174;2023-12-07T06:22:06;100522.28;;;1.44;100.00
9077;BME280;4574;51.072;17.174;2023-12-07T06:24:37;100522.19;;;1.45;100.00
9077;BME280;4574;51.072;17.174;2023-12-07T06:27:06;100526.59;;;1.45;100.00
9077;BME280;4574;51.072;17.174;2023-12-07T06:29:34;100521.44;;;1.43;100.00
9077;BME280;4574;51.072;17.174;2023-12-07T06:32:05;100530.13;;;1.44;100.00
9077;BME280;4574;51.072;17.174;2023-12-07T06:34:33;100530.94;;;1.44;100.00
9077;BME280;4574;51.072;17.174;2023-12-07T06:37:03;100531.81;;;1.45;100.00
9077;BME280;4574;51.072;17.174;2023-12-07T06:39:31;100531.69;;;1.46;100.00
9077;BME280;4574;51.072;17.174;2023-12-07T06:42:02;100531.69;;;1.46;100.00
9077;BME280;4574;51.072;17.174;2023-12-07T06:44:31;100518.50;;;1.34;100.00
9077;BME280;4574;51.072;17.174;2023-12-07T06:46:59;100542.25;;;1.45;100.00
9077;BME280;4574;51.072;17.174;2023-12-07T06:49:31;100542.25;;;1.45;100.00
9077;BME280;4574;51.072;17.174;2023-12-07T06:52:15;100539.84;;;1.40;100.00
9077;BME280;4574;51.072;17.174;2023-12-07T06:54:44;100551.00;;;1.44;100.00
9077;BME280;4574;51.072;17.174;2023-12-07T06:57:14;100551.81;;;1.44;100.00
9077;BME280;4574;51.072;17.174;2023-12-07T06:59:43;100547.44;;;1.45;100.00
9077;BME280;4574;51.072;17.174;2023-12-07T07:02:12;100549.97;;;1.46;100.00
9077;BME280;4574;51.072;17.174;2023-12-07T07:04:40;100546.53;;;1.46;100.00
9077;BME280;4574;51.072;17.174;2023-12-07T07:07:09;100548.28;;;1.45;100.00
9077;BME280;4574;51.072;17.174;2023-12-07T07:09:37;100547.44;;;1.45;100.00
9077;BME280;4574;51.072;17.174;2023-12-07T07:12:06;100554.25;;;1.47;100.00
9077;BME280;4574;51.072;17.174;2023-12-07T07:14:36;100555.94;;;1.48;100.00
9077;BME280;4574;51.072;17.174;2023-12-07T07:17:05;100565.44;;;1.49;100.00
9077;BME280;4574;51.072;17.174;2023-12-07T07:19:34;100560.22;;;1.49;100.00
9077;BME280;4574;51.072;17.174;2023-12-07T07:22:03;100558.53;;;1.48;100.00
9077;BME280;4574;51.072;17.174;2023-12-07T07:24:32;100562.06;;;1.47;100.00
9077;BME280;4574;51.072;17.174;2023-12-07T07:27:00;100558.53;;;1.48;100.00
9077;BME280;4574;51.072;17.174;2023-12-07T07:29:29;100561.16;;;1.48;100.00
9077;BME280;4574;51.072;17.174;2023-12-07T07:32:01;100565.44;;;1.49;100.00
9077;BME280;4574;51.072;17.174;2023-12-07T07:34:29;100568.16;;;1.48;100.00
9077;BME280;4574;51.072;17.174;2023-12-07T07:36:58;100571.59;;;1.48;100.00
9077;BME280;4574;51.072;17.174;2023-12-07T07:39:27;100572.50;;;1.47;100.00
9077;BME280;4574;51.072;17.174;2023-12-07T07:41:55;100571.69;;;1.47;100.00
9077;BME280;4574;51.072;17.174;2023-12-07T07:44:24;100568.97;;;1.48;100.00
9077;BME280;4574;51.072;17.174;2023-12-07T07:46:53;100566.47;;;1.47;100.00
9077;BME280;4574;51.072;17.174;2023-12-07T07:49:23;100578.81;;;1.43;100.00
9077;BME280;4574;51.072;17.174;2023-12-07T07:51:52;100581.25;;;1.46;100.00
9077;BME280;4574;51.072;17.174;2023-12-07T07:54:20;100583.81;;;1.48;100.00
9077;BME280;4574;51.072;17.174;2023-12-07T07:56:49;100590.69;;;1.49;100.00
9077;BME280;4574;51.072;17.174;2023-12-07T07:59:18;100589.78;;;1.50;100.00
9077;BME280;4574;51.072;17.174;2023-12-07T08:01:46;100585.50;;;1.49;100.00
9077;BME280;4574;51.072;17.174;2023-12-07T08:04:15;100595.81;;;1.50;100.00
9077;BME280;4574;51.072;17.174;2023-12-07T08:06:45;100591.53;;;1.49;100.00
9077;BME280;4574;51.072;17.174;2023-12-07T08:09:14;100570.22;;;1.41;100.00
9077;BME280;4574;51.072;17.174;2023-12-07T08:11:42;100593.22;;;1.50;100.00
9077;BME280;4574;51.072;17.174;2023-12-07T08:14:11;100578.66;;;1.46;100.00
9077;BME280;4574;51.072;17.174;2023-12-07T08:16:42;100588.75;;;1.52;100.00
9077;BME280;4574;51.072;17.174;2023-12-07T08:19:11;100598.28;;;1.53;100.00
9077;BME280;4574;51.072;17.174;2023-12-07T08:21:40;100587.84;;;1.53;100.00
9077;BME280;4574;51.072;17.174;2023-12-07T08:24:10;100596.53;;;1.54;100.00
9077;BME280;4574;51.072;17.174;2023-12-07T08:26:39;100606.84;;;1.55;100.00
9077;BME280;4574;51.072;17.174;2023-12-07T08:29:08;100605.16;;;1.54;100.00
9077;BME280;4574;51.072;17.174;2023-12-07T08:31:40;100599.03;;;1.55;100.00
9077;BME280;4574;51.072;17.174;2023-12-07T08:34:13;100606.69;;;1.58;100.00
9077;BME280;4574;51.072;17.174;2023-12-07T08:36:42;100602.41;;;1.57;100.00
9077;BME280;4574;51.072;17.174;2023-12-07T08:39:12;100610.91;;;1.61;100.00
9077;BME280;4574;51.072;17.174;2023-12-07T08:41:40;100616.97;;;1.61;100.00
9077;BME280;4574;51.072;17.174;2023-12-07T08:44:09;100613.53;;;1.61;100.00
9077;BME280;4574;51.072;17.174;2023-12-07T08:46:38;100613.44;;;1.62;100.00
9077;BME280;4574;51.072;17.174;2023-12-07T08:49:11;100616.97;;;1.61;100.00
9077;BME280;4574;51.072;17.174;2023-12-07T08:51:40;100601.63;;;1.55;100.00
9077;BME280;4574;51.072;17.174;2023-12-07T08:54:30;100615.22;;;1.62;100.00
9077;BME280;4574;51.072;17.174;2023-12-07T08:56:58;100604.69;;;1.63;100.00
9077;BME280;4574;51.072;17.174;2023-12-07T08:59:27;100605.59;;;1.62;100.00
9077;BME280;4574;51.072;17.174;2023-12-07T09:01:55;100609.06;;;1.63;100.00
9077;BME280;4574;51.072;17.174;2023-12-07T09:04:24;100605.72;;;1.61;100.00
9077;BME280;4574;51.072;17.174;2023-12-07T09:06:54;100601.16;;;1.64;100.00
9077;BME280;4574;51.072;17.174;2023-12-07T09:09:23;100595.78;;;1.67;100.00
9077;BME280;4574;51.072;17.174;2023-12-07T09:11:56;100607.88;;;1.68;100.00
9077;BME280;4574;51.072;17.174;2023-12-07T09:14:24;100608.75;;;1.69;100.00
9077;BME280;4574;51.072;17.174;2023-12-07T09:16:53;100613.09;;;1.68;100.00
9077;BME280;4574;51.072;17.174;2023-12-07T09:19:22;100612.19;;;1.69;100.00
9077;BME280;4574;51.072;17.174;2023-12-07T09:21:51;100619.78;;;1.74;100.00
9077;BME280;4574;51.072;17.174;2023-12-07T09:24:19;100626.69;;;1.75;100.00
9077;BME280;4574;51.072;17.174;2023-12-07T09:26:48;100614.50;;;1.75;100.00
9077;BME280;4574;51.072;17.174;2023-12-07T09:29:19;100610.25;;;1.73;100.00
9077;BME280;4574;51.072;17.174;2023-12-07T09:31:47;100616.19;;;1.76;100.00
9077;BME280;4574;51.072;17.174;2023-12-07T09:34:16;100610.78;;;1.79;100.00
9077;BME280;4574;51.072;17.174;2023-12-07T09:36:45;100610.63;;;1.82;100.00
9077;BME280;4574;51.072;17.174;2023-12-07T09:39:14;100615.69;;;1.85;100.00
9077;BME280;4574;51.072;17.174;2023-12-07T09:41:43;100609.53;;;1.86;100.00
9077;BME280;4574;51.072;17.174;2023-12-07T09:44:14;100601.72;;;1.86;100.00
9077;BME280;4574;51.072;17.174;2023-12-07T09:46:44;100603.22;;;1.90;100.00
9077;BME280;4574;51.072;17.174;2023-12-07T09:49:13;100601.38;;;1.92;100.00
9077;BME280;4574;51.072;17.174;2023-12-07T09:51:42;100609.09;;;1.94;100.00
9077;BME280;4574;51.072;17.174;2023-12-07T09:54:12;100600.28;;;1.96;100.00
9077;BME280;4574;51.072;17.174;2023-12-07T09:56:41;100598.75;;;1.92;100.00
9077;BME280;4574;51.072;17.174;2023-12-07T09:59:11;100598.75;;;1.92;100.00
9077;BME280;4574;51.072;17.174;2023-12-07T10:01:39;100599.59;;;1.93;100.00
9077;BME280;4574;51.072;17.174;2023-12-07T10:04:16;100600.50;;;1.92;100.00
9077;BME280;4574;51.072;17.174;2023-12-07T10:06:45;100598.84;;;1.91;100.00
9077;BME280;4574;51.072;17.174;2023-12-07T10:09:14;100598.50;;;1.97;100.00
9077;BME280;4574;51.072;17.174;2023-12-07T10:11:50;100595.81;;;1.98;100.00
9077;BME280;4574;51.072;17.174;2023-12-07T10:14:29;100600.88;;;2.01;100.00
9077;BME280;4574;51.072;17.174;2023-12-07T10:16:59;100600.13;;;1.99;100.00
9077;BME280;4574;51.072;17.174;2023-12-07T10:19:30;100603.31;;;2.04;100.00
9077;BME280;4574;51.072;17.174;2023-12-07T10:21:59;100602.38;;;2.05;100.00
9077;BME280;4574;51.072;17.174;2023-12-07T10:24:28;100599.78;;;2.05;100.00
9077;BME280;4574;51.072;17.174;2023-12-07T10:26:58;100596.91;;;2.10;100.00
9077;BME280;4574;51.072;17.174;2023-12-07T10:29:30;100602.97;;;2.10;100.00
9077;BME280;4574;51.072;17.174;2023-12-07T10:32:01;100596.81;;;2.11;100.00
9077;BME280;4574;51.072;17.174;2023-12-07T10:34:32;100594.97;;;2.13;100.00
9077;BME280;4574;51.072;17.174;2023-12-07T10:37:03;100608.78;;;2.15;100.00
9077;BME280;4574;51.072;17.174;2023-12-07T10:39:33;100599.09;;;2.17;100.00
9077;BME280;4574;51.072;17.174;2023-12-07T10:42:02;100599.84;;;2.19;100.00
9077;BME280;4574;51.072;17.174;2023-12-07T10:44:36;100599.84;;;2.19;100.00
9077;BME280;4574;51.072;17.174;2023-12-07T10:47:10;100596.31;;;2.20;100.00
9077;BME280;4574;51.072;17.174;2023-12-07T10:49:43;100601.38;;;2.23;100.00
9077;BME280;4574;51.072;17.174;2023-12-07T10:52:16;100599.69;;;2.22;100.00
9077;BME280;4574;51.072;17.174;2023-12-07T10:54:53;100599.50;;;2.25;100.00
9077;BME280;4574;51.072;17.174;2023-12-07T10:57:26;100605.50;;;2.27;100.00
9077;BME280;4574;51.072;17.174;2023-12-07T10:59:57;100607.19;;;2.28;100.00
9077;BME280;4574;51.072;17.174;2023-12-07T11:02:28;100599.41;;;2.27;100.00
9077;BME280;4574;51.072;17.174;2023-12-07T11:04:59;100602.72;;;2.30;100.00
9077;BME280;4574;51.072;17.174;2023-12-07T11:07:39;100602.44;;;2.35;100.00
9077;BME280;4574;51.072;17.174;2023-12-07T11:10:18;100600.69;;;2.35;100.00
9077;BME280;4574;51.072;17.174;2023-12-07T11:12:54;100604.22;;;2.34;100.00
9077;BME280;4574;51.072;17.174;2023-12-07T11:15:28;100589.19;;;2.38;100.00
9077;BME280;4574;51.072;17.174;2023-12-07T11:17:57;100603.13;;;2.38;100.00
9077;BME280;4574;51.072;17.174;2023-12-07T11:20:39;100600.34;;;2.41;100.00
9077;BME280;4574;51.072;17.174;2023-12-07T11:23:09;100599.41;;;2.42;100.00
9077;BME280;4574;51.072;17.174;2023-12-07T11:25:38;100597.63;;;2.43;100.00
9077;BME280;4574;51.072;17.174;2023-12-07T11:28:07;100582.88;;;2.42;100.00
9077;BME280;4574;51.072;17.174;2023-12-07T11:30:37;100593.16;;;2.45;100.00
9077;BME280;4574;51.072;17.174;2023-12-07T11:33:10;100594.00;;;2.45;100.00
9077;BME280;4574;51.072;17.174;2023-12-07T11:36:08;100593.06;;;2.46;100.00
9077;BME280;4574;51.072;17.174;2023-12-07T11:38:38;100598.47;;;2.43;100.00
9077;BME280;4574;51.072;17.174;2023-12-07T11:41:10;100592.31;;;2.44;100.00
9077;BME280;4574;51.072;17.174;2023-12-07T11:43:41;100591.56;;;2.42;100.00
9077;BME280;4574;51.072;17.174;2023-12-07T11:46:13;100581.47;;;2.36;100.00
9077;BME280;4574;51.072;17.174;2023-12-07T11:48:46;100590.06;;;2.38;100.00
9077;BME280;4574;51.072;17.174;2023-12-07T11:51:19;100593.78;;;2.34;100.00
9077;BME280;4574;51.072;17.174;2023-12-07T11:53:47;100588.44;;;2.36;100.00
9077;BME280;4574;51.072;17.174;2023-12-07T11:56:17;100586.75;;;2.50;100.00
9077;BME280;4574;51.072;17.174;2023-12-07T11:58:49;100583.56;;;2.45;100.00
9077;BME280;4574;51.072;17.174;2023-12-07T12:01:18;100585.13;;;2.48;100.00
9077;BME280;4574;51.072;17.174;2023-12-07T12:03:47;100591.97;;;2.50;100.00
9077;BME280;4574;51.072;17.174;2023-12-07T12:06:16;100596.53;;;2.47;100.00
9077;BME280;4574;51.072;17.174;2023-12-07T12:08:46;100593.06;;;2.46;100.00
9077;BME280;4574;51.072;17.174;2023-12-07T12:11:14;100576.06;;;2.39;100.00
9077;BME280;4574;51.072;17.174;2023-12-07T12:13:45;100600.00;;;2.47;100.00
9077;BME280;4574;51.072;17.174;2023-12-07T12:16:14;100585.50;;;2.42;100.00
9077;BME280;4574;51.072;17.174;2023-12-07T12:18:43;100595.69;;;2.46;100.00
9077;BME280;4574;51.072;17.174;2023-12-07T12:21:12;100594.75;;;2.47;100.00
9077;BME280;4574;51.072;17.174;2023-12-07T12:23:40;100595.88;;;2.43;100.00
9077;BME280;4574;51.072;17.174;2023-12-07T12:26:12;100594.84;;;2.46;100.00
9077;BME280;4574;51.072;17.174;2023-12-07T12:28:43;100587.09;;;2.44;100.00
9077;BME280;4574;51.072;17.174;2023-12-07T12:31:12;100586.69;;;2.36;100.00
9077;BME280;4574;51.072;17.174;2023-12-07T12:33:41;100585.66;;;2.39;100.00
9077;BME280;4574;51.072;17.174;2023-12-07T12:36:10;100584.66;;;2.41;100.00
9077;BME280;4574;51.072;17.174;2023-12-07T12:38:39;100586.34;;;2.42;100.00
9077;BME280;4574;51.072;17.174;2023-12-07T12:41:12;100600.00;;;2.47;100.00
9077;BME280;4574;51.072;17.174;2023-12-07T12:43:41;100589.59;;;2.46;100.00
9077;BME280;4574;51.072;17.174;2023-12-07T12:46:12;100590.19;;;2.51;100.00
9077;BME280;4574;51.072;17.174;2023-12-07T12:48:54;100588.25;;;2.54;100.00
9077;BME280;4574;51.072;17.174;2023-12-07T12:51:25;100584.72;;;2.55;100.00
9077;BME280;4574;51.072;17.174;2023-12-07T12:53:55;100583.72;;;2.58;100.00
9077;BME280;4574;51.072;17.174;2023-12-07T12:56:27;100582.78;;;2.59;100.00
9077;BME280;4574;51.072;17.174;2023-12-07T12:58:56;100581.50;;;2.65;100.00
9077;BME280;4574;51.072;17.174;2023-12-07T13:01:31;100579.72;;;2.66;100.00
9077;BME280;4574;51.072;17.174;2023-12-07T13:04:00;100575.78;;;2.59;100.00
9077;BME280;4574;51.072;17.174;2023-12-07T13:06:29;100593.53;;;2.68;100.00
9077;BME280;4574;51.072;17.174;2023-12-07T13:08:58;100597.06;;;2.67;100.00
9077;BME280;4574;51.072;17.174;2023-12-07T13:11:28;100594.41;;;2.68;100.00
9077;BME280;4574;51.072;17.174;2023-12-07T13:13:57;100593.72;;;2.65;100.00